sensor_id;sensor_type;location;lat;lon;timestamp;pressure;altitude;pressure_sealevel;temperature;humidity
70072;BME280;57434;42.794;23.302;2022-09-27T00:01:38;94457.78;;;12.66;85.16
70072;BME280;57434;42.794;23.302;2022-09-27T00:07:50;94373.25;;;11.51;86.08
70072;BME280;57434;42.794;23.302;2022-09-27T00:13:55;94357.69;;;12.07;86.25
70072;BME280;57434;42.794;23.302;2022-09-27T00:16:55;94520.53;;;13.12;86.27
70072;BME280;57434;42.794;23.302;2022-09-27T00:20:00;94422.97;;;12.13;87.42
70072;BME280;57434;42.794;23.302;2022-09-27T00:22:59;94786.84;;;14.78;87.54
70072;BME280;57434;42.794;23.302;2022-09-27T00:25:56;94308.47;;;11.25;87.80
70072;BME280;57434;42.794;23.302;2022-09-27T00:29:15;94533.47;;;13.02;85.53
70072;BME280;57434;42.794;23.302;2022-09-27T00:32:31;94599.63;;;13.27;86.66
70072;BME280;57434;42.794;23.302;2022-09-27T00:35:22;94798.75;;;14.71;87.50
70072;BME280;57434;42.794;23.302;2022-09-27T00:41:56;94628.66;;;13.73;88.75
70072;BME280;57434;42.794;23.302;2022-09-27T00:44:53;94767.19;;;14.41;89.38
70072;BME280;57434;42.794;23.302;2022-09-27T00:53:49;94758.34;;;14.63;89.17
70072;BME280;57434;42.794;23.302;2022-09-27T01:02:58;94418.13;;;12.13;90.38
70072;BME280;57434;42.794;23.302;2022-09-27T01:08:32;94549.38;;;13.31;90.24
70072;BME280;57434;42.794;23.302;2022-09-27T01:50:26;94711.94;;;14.32;92.09
70072;BME280;57434;42.794;23.302;2022-09-27T01:56:29;94461.69;;;12.63;91.22
70072;BME280;57434;42.794;23.302;2022-09-27T02:02:16;94349.09;;;11.99;90.91
70072;BME280;57434;42.794;23.302;2022-09-27T02:05:17;94293.44;;;11.79;91.58
70072;BME280;57434;42.794;23.302;2022-09-27T02:08:10;94732.91;;;14.37;92.42
70072;BME280;57434;42.794;23.302;2022-09-27T02:11:09;94692.72;;;14.17;92.27
70072;BME280;57434;42.794;23.302;2022-09-27T02:13:49;94696.66;;;14.41;92.41
70072;BME280;57434;42.794;23.302;2022-09-27T02:16:47;94675.88;;;14.12;91.88
70072;BME280;57434;42.794;23.302;2022-09-27T02:26:34;94708.25;;;14.37;92.66
70072;BME280;57434;42.794;23.302;2022-09-27T02:29:44;94676.25;;;14.35;92.81
70072;BME280;57434;42.794;23.302;2022-09-27T02:32:33;94658.13;;;14.30;92.84
70072;BME280;57434;42.794;23.302;2022-09-27T02:43:30;94466.13;;;13.04;92.74
70072;BME280;57434;42.794;23.302;2022-09-27T02:56:18;94486.28;;;13.08;92.41
70072;BME280;57434;42.794;23.302;2022-09-27T03:02:23;94555.56;;;13.62;92.61
70072;BME280;57434;42.794;23.302;2022-09-27T03:05:05;94661.72;;;14.31;93.19
70072;BME280;57434;42.794;23.302;2022-09-27T03:08:08;94685.56;;;14.16;94.03
70072;BME280;57434;42.794;23.302;2022-09-27T03:11:10;94619.41;;;14.31;94.10
70072;BME280;57434;42.794;23.302;2022-09-27T03:14:18;94627.66;;;14.29;94.31
70072;BME280;57434;42.794;23.302;2022-09-27T03:17:21;94096.03;;;11.01;93.85
70072;BME280;57434;42.794;23.302;2022-09-27T03:23:03;94548.66;;;13.76;92.81
70072;BME280;57434;42.794;23.302;2022-09-27T03:25:44;94471.19;;;13.37;92.67
70072;BME280;57434;42.794;23.302;2022-09-27T03:28:35;94327.88;;;12.49;92.97
70072;BME280;57434;42.794;23.302;2022-09-27T03:31:16;94265.84;;;11.96;93.18
70072;BME280;57434;42.794;23.302;2022-09-27T03:34:15;94406.91;;;13.09;93.73
70072;BME280;57434;42.794;23.302;2022-09-27T03:36:57;94334.88;;;12.42;93.97
70072;BME280;57434;42.794;23.302;2022-09-27T03:46:18;94340.19;;;12.33;93.23
70072;BME280;57434;42.794;23.302;2022-09-27T03:48:56;94276.28;;;11.82;93.76
70072;BME280;57434;42.794;23.302;2022-09-27T03:52:07;94429.13;;;13.13;94.38
70072;BME280;57434;42.794;23.302;2022-09-27T03:54:55;94533.03;;;13.75;93.91
70072;BME280;57434;42.794;23.302;2022-09-27T03:57:50;94600.94;;;14.03;93.79
70072;BME280;57434;42.794;23.302;2022-09-27T04:00:51;94367.88;;;12.42;94.06
70072;BME280;57434;42.794;23.302;2022-09-27T04:04:08;94281.78;;;11.56;94.06
70072;BME280;57434;42.794;23.302;2022-09-27T04:06:52;94388.75;;;12.65;93.84
70072;BME280;57434;42.794;23.302;2022-09-27T04:10:05;94596.94;;;14.25;93.94
70072;BME280;57434;42.794;23.302;2022-09-27T04:19:06;94415.59;;;12.47;93.37
70072;BME280;57434;42.794;23.302;2022-09-27T04:21:59;94229.66;;;11.74;93.42
70072;BME280;57434;42.794;23.302;2022-09-27T04:24:30;94395.94;;;12.93;93.85
70072;BME280;57434;42.794;23.302;2022-09-27T04:27:07;94297.94;;;12.19;93.14
70072;BME280;57434;42.794;23.302;2022-09-27T04:29:53;94547.34;;;13.77;93.90
70072;BME280;57434;42.794;23.302;2022-09-27T04:33:04;94439.69;;;12.62;94.45
70072;BME280;57434;42.794;23.302;2022-09-27T04:35:36;94609.50;;;13.98;95.02
70072;BME280;57434;42.794;23.302;2022-09-27T04:38:13;94149.13;;;10.56;95.05
70072;BME280;57434;42.794;23.302;2022-09-27T04:40:59;94564.66;;;13.68;95.28
70072;BME280;57434;42.794;23.302;2022-09-27T04:43:51;94417.19;;;13.07;95.17
70072;BME280;57434;42.794;23.302;2022-09-27T04:49:41;94406.16;;;13.09;94.26
70072;BME280;57434;42.794;23.302;2022-09-27T04:52:29;94352.41;;;12.80;93.56
70072;BME280;57434;42.794;23.302;2022-09-27T04:55:37;94683.09;;;14.52;93.09
70072;BME280;57434;42.794;23.302;2022-09-27T05:08:08;94596.59;;;14.42;93.56
70072;BME280;57434;42.794;23.302;2022-09-27T05:10:57;94236.22;;;11.95;94.00
70072;BME280;57434;42.794;23.302;2022-09-27T05:13:48;94153.94;;;11.17;93.95
70072;BME280;57434;42.794;23.302;2022-09-27T05:27:08;94209.84;;;11.85;93.74
70072;BME280;57434;42.794;23.302;2022-09-27T05:29:47;94580.84;;;14.73;93.75
70072;BME280;57434;42.794;23.302;2022-09-27T05:32:47;94163.06;;;12.14;92.34
70072;BME280;57434;42.794;23.302;2022-09-27T05:35:38;94440.66;;;13.94;93.17
70072;BME280;57434;42.794;23.302;2022-09-27T05:41:28;94323.31;;;13.17;90.78
70072;BME280;57434;42.794;23.302;2022-09-27T05:53:40;94605.13;;;14.89;89.99
70072;BME280;57434;42.794;23.302;2022-09-27T05:56:14;94302.69;;;12.57;89.73
70072;BME280;57434;42.794;23.302;2022-09-27T05:59:36;94233.22;;;12.38;90.04
70072;BME280;57434;42.794;23.302;2022-09-27T06:02:17;94266.47;;;12.66;90.19
70072;BME280;57434;42.794;23.302;2022-09-27T06:08:21;94497.66;;;14.13;91.54
70072;BME280;57434;42.794;23.302;2022-09-27T06:10:46;94630.25;;;14.79;92.14
70072;BME280;57434;42.794;23.302;2022-09-27T06:13:24;94491.38;;;14.20;91.97
70072;BME280;57434;42.794;23.302;2022-09-27T06:19:01;94415.59;;;13.77;90.17
70072;BME280;57434;42.794;23.302;2022-09-27T06:21:53;94238.00;;;12.57;89.87
70072;BME280;57434;42.794;23.302;2022-09-27T06:24:41;94260.00;;;12.26;89.84
70072;BME280;57434;42.794;23.302;2022-09-27T06:33:46;94179.69;;;11.53;91.58
70072;BME280;57434;42.794;23.302;2022-09-27T06:36:19;94315.91;;;12.62;92.84
70072;BME280;57434;42.794;23.302;2022-09-27T06:38:59;94403.78;;;13.13;93.03
70072;BME280;57434;42.794;23.302;2022-09-27T06:41:33;94475.38;;;13.76;92.79
70072;BME280;57434;42.794;23.302;2022-09-27T06:44:24;94564.69;;;14.47;93.60
70072;BME280;57434;42.794;23.302;2022-09-27T06:49:53;94491.06;;;13.71;94.28
70072;BME280;57434;42.794;23.302;2022-09-27T06:52:21;94570.53;;;14.36;93.96
70072;BME280;57434;42.794;23.302;2022-09-27T06:54:48;94467.00;;;13.83;94.29
70072;BME280;57434;42.794;23.302;2022-09-27T06:57:16;94422.00;;;13.38;94.44
70072;BME280;57434;42.794;23.302;2022-09-27T06:59:46;94482.94;;;13.68;94.39
70072;BME280;57434;42.794;23.302;2022-09-27T07:02:13;94461.28;;;13.76;94.83
70072;BME280;57434;42.794;23.302;2022-09-27T07:04:40;94459.28;;;13.57;94.77
70072;BME280;57434;42.794;23.302;2022-09-27T07:07:07;94470.78;;;13.86;95.10
70072;BME280;57434;42.794;23.302;2022-09-27T07:09:35;94503.88;;;13.99;95.22
70072;BME280;57434;42.794;23.302;2022-09-27T07:12:02;94639.00;;;15.02;95.13
70072;BME280;57434;42.794;23.302;2022-09-27T07:14:29;94473.28;;;14.03;94.82
70072;BME280;57434;42.794;23.302;2022-09-27T07:16:57;94495.16;;;14.23;94.71
70072;BME280;57434;42.794;23.302;2022-09-27T07:19:26;94630.13;;;15.19;94.74
70072;BME280;57434;42.794;23.302;2022-09-27T07:21:59;94579.88;;;14.70;94.52
70072;BME280;57434;42.794;23.302;2022-09-27T07:25:07;94159.59;;;11.95;93.90
70072;BME280;57434;42.794;23.302;2022-09-27T07:28:03;94330.66;;;13.34;93.97
70072;BME280;57434;42.794;23.302;2022-09-27T07:30:49;94438.44;;;14.13;93.60
70072;BME280;57434;42.794;23.302;2022-09-27T07:37:03;94592.44;;;15.16;93.66
70072;BME280;57434;42.794;23.302;2022-09-27T07:43:02;94327.72;;;13.52;92.87
70072;BME280;57434;42.794;23.302;2022-09-27T07:45:47;94489.50;;;14.83;92.60
70072;BME280;57434;42.794;23.302;2022-09-27T07:48:34;94640.88;;;15.54;91.40
70072;BME280;57434;42.794;23.302;2022-09-27T07:51:20;94348.25;;;13.87;90.27
70072;BME280;57434;42.794;23.302;2022-09-27T07:54:02;94462.69;;;14.98;91.02
70072;BME280;57434;42.794;23.302;2022-09-27T07:56:55;94427.81;;;14.53;90.24
70072;BME280;57434;42.794;23.302;2022-09-27T08:02:30;94513.75;;;15.00;91.44
70072;BME280;57434;42.794;23.302;2022-09-27T08:04:58;94228.13;;;12.50;90.83
70072;BME280;57434;42.794;23.302;2022-09-27T08:07:31;94188.31;;;12.59;90.63
70072;BME280;57434;42.794;23.302;2022-09-27T08:10:11;94403.16;;;13.73;92.04
70072;BME280;57434;42.794;23.302;2022-09-27T08:12:47;94292.34;;;12.91;91.13
70072;BME280;57434;42.794;23.302;2022-09-27T08:15:37;94616.47;;;15.44;91.57
70072;BME280;57434;42.794;23.302;2022-09-27T08:18:17;94337.59;;;13.59;91.70
70072;BME280;57434;42.794;23.302;2022-09-27T08:20:50;94394.59;;;13.65;91.29
70072;BME280;57434;42.794;23.302;2022-09-27T08:23:24;94343.44;;;13.74;91.69
70072;BME280;57434;42.794;23.302;2022-09-27T08:29:39;94627.91;;;15.38;92.17
70072;BME280;57434;42.794;23.302;2022-09-27T08:35:31;94358.94;;;13.68;92.49
70072;BME280;57434;42.794;23.302;2022-09-27T08:38:24;94412.84;;;14.59;93.55
70072;BME280;57434;42.794;23.302;2022-09-27T08:46:40;94564.13;;;15.64;94.38
70072;BME280;57434;42.794;23.302;2022-09-27T09:01:56;94306.72;;;13.87;92.92
70072;BME280;57434;42.794;23.302;2022-09-27T09:05:18;94547.13;;;15.84;93.49
70072;BME280;57434;42.794;23.302;2022-09-27T09:08:32;94110.41;;;12.67;92.44
70072;BME280;57434;42.794;23.302;2022-09-27T09:11:58;94575.84;;;15.68;92.76
70072;BME280;57434;42.794;23.302;2022-09-27T09:21:26;94515.84;;;15.41;94.07
70072;BME280;57434;42.794;23.302;2022-09-27T09:35:19;94283.38;;;14.00;91.79
70072;BME280;57434;42.794;23.302;2022-09-27T09:38:09;94346.47;;;14.86;91.22
70072;BME280;57434;42.794;23.302;2022-09-27T09:43:56;94528.72;;;16.27;90.49
70072;BME280;57434;42.794;23.302;2022-09-27T09:46:34;94184.03;;;14.36;89.68
70072;BME280;57434;42.794;23.302;2022-09-27T09:49:32;94550.56;;;16.91;90.69
70072;BME280;57434;42.794;23.302;2022-09-27T09:52:25;94563.81;;;17.11;89.26
70072;BME280;57434;42.794;23.302;2022-09-27T09:55:05;94446.69;;;16.35;88.72
70072;BME280;57434;42.794;23.302;2022-09-27T09:58:21;94260.53;;;15.38;88.19
70072;BME280;57434;42.794;23.302;2022-09-27T10:03:50;94368.09;;;15.69;88.89
70072;BME280;57434;42.794;23.302;2022-09-27T10:06:24;94132.91;;;14.39;86.99
70072;BME280;57434;42.794;23.302;2022-09-27T10:09:09;94440.47;;;16.36;87.45
70072;BME280;57434;42.794;23.302;2022-09-27T10:11:46;94267.84;;;14.98;88.40
70072;BME280;57434;42.794;23.302;2022-09-27T10:14:30;94508.25;;;16.93;89.51
70072;BME280;57434;42.794;23.302;2022-09-27T10:17:03;94367.94;;;15.74;88.91
70072;BME280;57434;42.794;23.302;2022-09-27T10:19:35;94509.44;;;17.05;88.30
70072;BME280;57434;42.794;23.302;2022-09-27T10:22:22;94525.53;;;17.48;88.80
70072;BME280;57434;42.794;23.302;2022-09-27T10:24:58;94512.88;;;17.95;86.61
70072;BME280;57434;42.794;23.302;2022-09-27T10:27:27;94494.97;;;18.55;86.24
70072;BME280;57434;42.794;23.302;2022-09-27T10:29:56;94500.31;;;18.91;82.82
70072;BME280;57434;42.794;23.302;2022-09-27T10:32:30;94408.88;;;18.78;80.63
70072;BME280;57434;42.794;23.302;2022-09-27T10:40:51;94375.88;;;18.57;78.40
70072;BME280;57434;42.794;23.302;2022-09-27T10:46:08;94356.69;;;19.40;70.35
70072;BME280;57434;42.794;23.302;2022-09-27T10:48:39;94384.81;;;19.28;70.37
70072;BME280;57434;42.794;23.302;2022-09-27T10:51:25;94459.72;;;19.98;71.19
70072;BME280;57434;42.794;23.302;2022-09-27T10:53:55;94388.00;;;19.57;72.63
70072;BME280;57434;42.794;23.302;2022-09-27T10:56:34;94458.03;;;19.95;73.40
70072;BME280;57434;42.794;23.302;2022-09-27T10:59:02;94420.69;;;20.60;73.02
70072;BME280;57434;42.794;23.302;2022-09-27T11:01:44;94449.84;;;21.85;70.57
70072;BME280;57434;42.794;23.302;2022-09-27T11:04:28;94446.00;;;22.87;66.86
70072;BME280;57434;42.794;23.302;2022-09-27T11:07:15;94449.78;;;22.80;66.09
70072;BME280;57434;42.794;23.302;2022-09-27T11:09:55;94436.22;;;23.00;61.50
70072;BME280;57434;42.794;23.302;2022-09-27T11:12:23;94239.09;;;21.07;60.88
70072;BME280;57434;42.794;23.302;2022-09-27T11:15:05;94432.53;;;23.18;64.07
70072;BME280;57434;42.794;23.302;2022-09-27T11:17:52;94341.47;;;22.55;61.91
70072;BME280;57434;42.794;23.302;2022-09-27T11:20:52;94433.22;;;23.48;62.14
70072;BME280;57434;42.794;23.302;2022-09-27T11:23:37;94338.75;;;22.76;59.42
70072;BME280;57434;42.794;23.302;2022-09-27T11:29:30;94451.22;;;21.94;63.96
70072;BME280;57434;42.794;23.302;2022-09-27T11:32:07;94429.97;;;21.32;67.39
70072;BME280;57434;42.794;23.302;2022-09-27T11:35:04;94426.47;;;21.23;71.13
70072;BME280;57434;42.794;23.302;2022-09-27T11:37:42;94282.22;;;20.47;67.64
70072;BME280;57434;42.794;23.302;2022-09-27T11:40:44;94324.91;;;20.20;65.95
70072;BME280;57434;42.794;23.302;2022-09-27T11:43:35;94403.38;;;21.29;66.84
70072;BME280;57434;42.794;23.302;2022-09-27T11:46:30;94394.72;;;22.02;64.20
70072;BME280;57434;42.794;23.302;2022-09-27T11:49:37;94384.06;;;21.93;65.16
70072;BME280;57434;42.794;23.302;2022-09-27T11:52:35;94241.34;;;22.34;64.26
70072;BME280;57434;42.794;23.302;2022-09-27T11:55:19;94206.91;;;22.32;63.69
70072;BME280;57434;42.794;23.302;2022-09-27T11:58:01;94380.69;;;22.93;64.02
70072;BME280;57434;42.794;23.302;2022-09-27T12:03:50;94270.00;;;21.95;66.39
70072;BME280;57434;42.794;23.302;2022-09-27T12:09:07;94256.81;;;21.05;69.13
70072;BME280;57434;42.794;23.302;2022-09-27T12:11:45;94278.75;;;21.12;69.55
70072;BME280;57434;42.794;23.302;2022-09-27T12:14:43;94355.69;;;21.49;68.41
70072;BME280;57434;42.794;23.302;2022-09-27T12:17:23;94351.75;;;21.44;69.18
70072;BME280;57434;42.794;23.302;2022-09-27T12:19:57;94276.84;;;20.61;68.62
70072;BME280;57434;42.794;23.302;2022-09-27T12:22:49;94260.44;;;20.42;69.78
70072;BME280;57434;42.794;23.302;2022-09-27T12:25:29;94329.44;;;21.04;70.82
70072;BME280;57434;42.794;23.302;2022-09-27T12:28:13;94254.16;;;20.90;70.57
70072;BME280;57434;42.794;23.302;2022-09-27T12:31:00;94214.59;;;20.48;68.95
70072;BME280;57434;42.794;23.302;2022-09-27T12:36:30;94247.75;;;20.53;69.39
70072;BME280;57434;42.794;23.302;2022-09-27T12:39:14;94307.81;;;20.74;70.88
70072;BME280;57434;42.794;23.302;2022-09-27T12:41:50;94317.88;;;20.75;71.85
70072;BME280;57434;42.794;23.302;2022-09-27T12:44:20;94165.56;;;19.86;70.83
70072;BME280;57434;42.794;23.302;2022-09-27T12:49:40;94228.94;;;20.13;72.77
70072;BME280;57434;42.794;23.302;2022-09-27T12:52:14;94128.00;;;19.26;72.92
70072;BME280;57434;42.794;23.302;2022-09-27T13:00:19;94337.56;;;19.41;70.73
70072;BME280;57434;42.794;23.302;2022-09-27T13:03:21;94233.03;;;19.07;72.12
70072;BME280;57434;42.794;23.302;2022-09-27T13:06:13;94188.56;;;19.19;71.38
70072;BME280;57434;42.794;23.302;2022-09-27T13:08:58;94287.75;;;19.84;70.82
70072;BME280;57434;42.794;23.302;2022-09-27T13:14:03;94334.91;;;18.93;71.75
70072;BME280;57434;42.794;23.302;2022-09-27T13:16:44;94298.81;;;18.78;72.42
70072;BME280;57434;42.794;23.302;2022-09-27T13:24:54;94304.50;;;19.80;72.37
70072;BME280;57434;42.794;23.302;2022-09-27T13:29:49;94313.78;;;19.80;72.86
70072;BME280;57434;42.794;23.302;2022-09-27T13:32:21;94290.97;;;19.71;72.42
70072;BME280;57434;42.794;23.302;2022-09-27T13:34:51;94225.72;;;19.38;73.31
70072;BME280;57434;42.794;23.302;2022-09-27T13:48:29;94295.66;;;19.76;73.38
70072;BME280;57434;42.794;23.302;2022-09-27T13:51:02;94198.88;;;18.72;74.05
70072;BME280;57434;42.794;23.302;2022-09-27T13:53:37;94299.41;;;19.44;74.41
70072;BME280;57434;42.794;23.302;2022-09-27T13:59:12;94214.47;;;18.39;76.75
70072;BME280;57434;42.794;23.302;2022-09-27T14:01:51;94317.56;;;18.49;77.97
70072;BME280;57434;42.794;23.302;2022-09-27T14:04:23;94213.97;;;18.00;76.63
70072;BME280;57434;42.794;23.302;2022-09-27T14:06:57;94223.09;;;17.91;75.49
70072;BME280;57434;42.794;23.302;2022-09-27T14:09:32;94194.13;;;18.00;74.65
70072;BME280;57434;42.794;23.302;2022-09-27T14:12:08;94310.59;;;18.75;77.55
70072;BME280;57434;42.794;23.302;2022-09-27T14:14:36;94325.19;;;18.71;77.22
70072;BME280;57434;42.794;23.302;2022-09-27T14:17:08;94113.59;;;17.23;77.67
70072;BME280;57434;42.794;23.302;2022-09-27T14:19:40;94202.06;;;18.02;77.12
70072;BME280;57434;42.794;23.302;2022-09-27T14:22:13;94208.88;;;17.99;77.38
70072;BME280;57434;42.794;23.302;2022-09-27T14:27:18;94167.13;;;17.91;76.75
70072;BME280;57434;42.794;23.302;2022-09-27T14:29:51;94264.00;;;18.45;78.50
70072;BME280;57434;42.794;23.302;2022-09-27T14:32:21;94104.84;;;17.36;76.90
70072;BME280;57434;42.794;23.302;2022-09-27T14:35:16;94151.56;;;17.68;77.06
70072;BME280;57434;42.794;23.302;2022-09-27T14:37:44;94255.91;;;18.42;79.25
70072;BME280;57434;42.794;23.302;2022-09-27T14:40:19;94223.06;;;17.99;81.04
70072;BME280;57434;42.794;23.302;2022-09-27T14:42:52;94195.63;;;17.69;81.15
70072;BME280;57434;42.794;23.302;2022-09-27T14:45:35;94164.16;;;17.42;82.33
70072;BME280;57434;42.794;23.302;2022-09-27T14:48:26;94276.78;;;18.04;83.47
70072;BME280;57434;42.794;23.302;2022-09-27T14:51:03;94278.41;;;17.75;84.45
70072;BME280;57434;42.794;23.302;2022-09-27T14:53:45;94303.66;;;17.96;85.67
70072;BME280;57434;42.794;23.302;2022-09-27T14:56:18;94224.91;;;17.23;85.68
70072;BME280;57434;42.794;23.302;2022-09-27T14:58:49;94321.50;;;17.81;86.73
70072;BME280;57434;42.794;23.302;2022-09-27T15:01:19;94223.63;;;17.02;86.44
70072;BME280;57434;42.794;23.302;2022-09-27T15:03:47;94342.72;;;17.65;87.23
70072;BME280;57434;42.794;23.302;2022-09-27T15:06:15;94262.72;;;16.96;88.38
70072;BME280;57434;42.794;23.302;2022-09-27T15:08:43;94226.47;;;16.64;87.84
70072;BME280;57434;42.794;23.302;2022-09-27T15:11:11;94218.00;;;16.56;87.61
70072;BME280;57434;42.794;23.302;2022-09-27T15:13:39;94247.59;;;17.08;88.45
70072;BME280;57434;42.794;23.302;2022-09-27T15:16:12;94330.69;;;17.18;89.17
70072;BME280;57434;42.794;23.302;2022-09-27T15:18:43;94341.81;;;17.39;89.61
70072;BME280;57434;42.794;23.302;2022-09-27T15:21:34;94322.75;;;17.24;89.42
70072;BME280;57434;42.794;23.302;2022-09-27T15:24:03;94315.53;;;17.39;88.54
70072;BME280;57434;42.794;23.302;2022-09-27T15:26:40;94347.84;;;17.43;87.94
70072;BME280;57434;42.794;23.302;2022-09-27T15:29:22;94219.50;;;16.42;87.60
70072;BME280;57434;42.794;23.302;2022-09-27T15:32:04;94360.94;;;17.01;88.45
70072;BME280;57434;42.794;23.302;2022-09-27T15:34:33;94230.91;;;15.75;85.11
70072;BME280;57434;42.794;23.302;2022-09-27T15:37:02;94356.31;;;16.37;84.10
70072;BME280;57434;42.794;23.302;2022-09-27T15:39:35;94331.66;;;16.01;85.35
70072;BME280;57434;42.794;23.302;2022-09-27T15:42:08;94205.25;;;14.78;85.46
70072;BME280;57434;42.794;23.302;2022-09-27T15:52:53;94310.09;;;14.20;85.00
70072;BME280;57434;42.794;23.302;2022-09-27T15:55:25;94387.31;;;14.85;84.50
70072;BME280;57434;42.794;23.302;2022-09-27T15:57:55;94292.16;;;14.31;83.58
70072;BME280;57434;42.794;23.302;2022-09-27T16:00:23;94286.41;;;14.02;85.62
70072;BME280;57434;42.794;23.302;2022-09-27T16:02:50;94408.78;;;15.09;85.36
70072;BME280;57434;42.794;23.302;2022-09-27T16:05:17;94349.06;;;14.63;84.02
70072;BME280;57434;42.794;23.302;2022-09-27T16:07:44;94430.66;;;14.95;83.94
70072;BME280;57434;42.794;23.302;2022-09-27T16:10:20;94434.84;;;15.22;82.72
70072;BME280;57434;42.794;23.302;2022-09-27T16:12:48;94372.81;;;14.68;83.65
70072;BME280;57434;42.794;23.302;2022-09-27T16:15:15;94435.69;;;14.89;85.47
70072;BME280;57434;42.794;23.302;2022-09-27T16:17:43;94352.16;;;14.52;86.62
70072;BME280;57434;42.794;23.302;2022-09-27T16:20:21;94445.41;;;15.22;85.69
70072;BME280;57434;42.794;23.302;2022-09-27T16:22:50;94362.69;;;14.51;86.25
70072;BME280;57434;42.794;23.302;2022-09-27T16:25:17;94479.50;;;15.24;86.49
70072;BME280;57434;42.794;23.302;2022-09-27T16:27:45;94438.59;;;14.97;87.86
70072;BME280;57434;42.794;23.302;2022-09-27T16:30:14;94485.84;;;15.17;83.94
70072;BME280;57434;42.794;23.302;2022-09-27T16:32:46;94492.41;;;15.12;83.58
70072;BME280;57434;42.794;23.302;2022-09-27T16:35:14;94369.69;;;14.37;84.65
70072;BME280;57434;42.794;23.302;2022-09-27T16:37:43;94329.09;;;14.40;86.48
70072;BME280;57434;42.794;23.302;2022-09-27T16:40:11;94373.03;;;14.70;87.53
70072;BME280;57434;42.794;23.302;2022-09-27T16:42:38;94282.97;;;13.62;89.15
70072;BME280;57434;42.794;23.302;2022-09-27T16:45:06;94373.06;;;14.02;88.74
70072;BME280;57434;42.794;23.302;2022-09-27T16:47:38;94405.06;;;14.04;89.70
70072;BME280;57434;42.794;23.302;2022-09-27T16:50:05;94319.28;;;13.52;88.79
70072;BME280;57434;42.794;23.302;2022-09-27T16:52:33;94396.41;;;13.89;89.56
70072;BME280;57434;42.794;23.302;2022-09-27T16:55:01;94397.81;;;13.82;90.26
70072;BME280;57434;42.794;23.302;2022-09-27T16:57:28;94389.28;;;13.75;90.86
70072;BME280;57434;42.794;23.302;2022-09-27T16:59:58;94509.50;;;14.72;91.06
70072;BME280;57434;42.794;23.302;2022-09-27T17:02:26;94435.06;;;14.28;89.49
70072;BME280;57434;42.794;23.302;2022-09-27T17:04:53;94356.78;;;13.61;89.44
70072;BME280;57434;42.794;23.302;2022-09-27T17:07:21;94348.97;;;13.53;89.57
70072;BME280;57434;42.794;23.302;2022-09-27T17:09:48;94266.66;;;13.08;88.79
70072;BME280;57434;42.794;23.302;2022-09-27T17:12:15;94392.44;;;13.58;89.97
70072;BME280;57434;42.794;23.302;2022-09-27T17:14:46;94514.97;;;14.44;90.63
70072;BME280;57434;42.794;23.302;2022-09-27T17:17:15;94390.88;;;13.83;90.54
70072;BME280;57434;42.794;23.302;2022-09-27T17:19:43;94517.34;;;14.53;90.48
70072;BME280;57434;42.794;23.302;2022-09-27T17:22:11;94497.28;;;14.43;90.26
70072;BME280;57434;42.794;23.302;2022-09-27T17:24:44;94544.47;;;14.69;90.33
70072;BME280;57434;42.794;23.302;2022-09-27T17:27:12;94555.31;;;14.78;90.26
70072;BME280;57434;42.794;23.302;2022-09-27T17:29:54;94292.44;;;12.85;90.98
70072;BME280;57434;42.794;23.302;2022-09-27T17:32:36;94574.66;;;14.61;91.70
70072;BME280;57434;42.794;23.302;2022-09-27T17:37:49;94543.50;;;14.67;92.06
70072;BME280;57434;42.794;23.302;2022-09-27T17:40:26;94308.88;;;13.34;90.86
70072;BME280;57434;42.794;23.302;2022-09-27T17:43:13;94090.91;;;11.64;90.18
70072;BME280;57434;42.794;23.302;2022-09-27T17:46:04;94543.94;;;14.44;90.98
70072;BME280;57434;42.794;23.302;2022-09-27T17:48:35;94577.31;;;14.59;90.43
70072;BME280;57434;42.794;23.302;2022-09-27T17:51:23;94530.81;;;14.34;89.91
70072;BME280;57434;42.794;23.302;2022-09-27T17:54:17;94430.22;;;13.36;89.35
70072;BME280;57434;42.794;23.302;2022-09-27T17:56:58;94340.50;;;13.27;88.95
70072;BME280;57434;42.794;23.302;2022-09-27T17:59:27;94403.06;;;13.65;88.12
70072;BME280;57434;42.794;23.302;2022-09-27T18:02:17;94529.56;;;13.82;88.40
70072;BME280;57434;42.794;23.302;2022-09-27T18:05:22;94314.63;;;13.02;88.62
70072;BME280;57434;42.794;23.302;2022-09-27T18:07:57;94258.72;;;12.27;88.13
70072;BME280;57434;42.794;23.302;2022-09-27T18:10:42;94231.09;;;12.12;88.09
70072;BME280;57434;42.794;23.302;2022-09-27T18:20:00;94336.94;;;12.42;88.31
70072;BME280;57434;42.794;23.302;2022-09-27T18:22:45;94115.66;;;10.82;87.66
70072;BME280;57434;42.794;23.302;2022-09-27T18:25:15;94588.03;;;14.21;88.08
70072;BME280;57434;42.794;23.302;2022-09-27T18:27:48;94168.28;;;11.14;88.02
70072;BME280;57434;42.794;23.302;2022-09-27T18:30:21;94310.25;;;12.16;89.11
70072;BME280;57434;42.794;23.302;2022-09-27T18:32:57;94417.75;;;12.73;90.02
70072;BME280;57434;42.794;23.302;2022-09-27T18:35:47;94091.28;;;10.34;89.72
70072;BME280;57434;42.794;23.302;2022-09-27T18:39:17;94161.00;;;10.86;90.13
70072;BME280;57434;42.794;23.302;2022-09-27T18:45:18;94589.22;;;13.54;91.58
70072;BME280;57434;42.794;23.302;2022-09-27T18:58:17;94230.84;;;11.09;90.64
70072;BME280;57434;42.794;23.302;2022-09-27T19:03:55;94298.31;;;11.78;90.75
70072;BME280;57434;42.794;23.302;2022-09-27T19:06:33;94415.09;;;12.11;90.79
70072;BME280;57434;42.794;23.302;2022-09-27T19:09:07;94154.22;;;10.14;90.46
70072;BME280;57434;42.794;23.302;2022-09-27T19:11:33;94377.34;;;11.50;91.01
70072;BME280;57434;42.794;23.302;2022-09-27T19:14:01;94397.47;;;11.54;91.27
70072;BME280;57434;42.794;23.302;2022-09-27T19:16:28;94346.00;;;11.46;91.27
70072;BME280;57434;42.794;23.302;2022-09-27T19:19:41;94421.00;;;11.89;91.27